createdAt,value
2022-08-17T00:03:03.062Z,23.00
2022-08-17T00:07:04.291Z,23.00
2022-08-17T00:11:08.546Z,23.00
2022-08-17T00:15:11.487Z,22.80
2022-08-17T00:19:15.749Z,22.50
2022-08-17T00:23:18.923Z,22.60
2022-08-17T00:27:20.991Z,22.50
2022-08-17T00:31:22.573Z,22.60
2022-08-17T00:35:24.980Z,22.70
2022-08-17T00:39:26.257Z,22.70
2022-08-17T00:43:37.370Z,22.60
2022-08-17T00:47:38.705Z,22.60
2022-08-17T00:51:52.749Z,22.60
2022-08-17T00:55:53.993Z,22.50
2022-08-17T01:00:03.738Z,22.50
2022-08-17T01:04:05.729Z,22.50
2022-08-17T01:08:10.050Z,22.60
2022-08-17T01:12:12.072Z,22.50
2022-08-17T01:16:19.727Z,22.40
2022-08-17T01:20:21.473Z,22.40
2022-08-17T01:24:23.138Z,22.20
2022-08-17T01:28:52.418Z,22.00
2022-08-17T01:32:29.955Z,21.80
2022-08-17T01:36:31.214Z,21.60
2022-08-17T01:40:39.289Z,21.70
2022-08-17T01:44:40.972Z,21.60
2022-08-17T01:48:42.931Z,21.60
2022-08-17T01:52:46.505Z,21.70
2022-08-17T01:56:51.106Z,21.60
2022-08-17T02:01:00.279Z,21.20
2022-08-17T02:04:56.831Z,21.10
2022-08-17T02:09:02.599Z,21.00
2022-08-17T02:13:03.529Z,21.00
2022-08-17T02:17:04.751Z,20.90
2022-08-17T02:21:06.974Z,20.80
2022-08-17T02:25:11.600Z,20.80
2022-08-17T02:29:14.791Z,20.90
2022-08-17T02:33:16.309Z,21.00
2022-08-17T02:37:18.103Z,21.00
2022-08-17T02:41:19.396Z,21.00
2022-08-17T02:45:23.017Z,20.90
2022-08-17T02:49:24.291Z,21.00
2022-08-17T02:53:26.156Z,20.90
2022-08-17T02:57:27.614Z,21.10
2022-08-17T03:01:29.230Z,21.20
2022-08-17T03:05:33.125Z,21.40
2022-08-17T03:09:34.543Z,21.40
2022-08-17T03:13:35.783Z,21.40
2022-08-17T03:17:37.034Z,21.40
2022-08-17T03:21:38.346Z,21.40
2022-08-17T03:25:42.414Z,21.50
2022-08-17T03:29:45.246Z,21.30
2022-08-17T03:33:46.719Z,21.50
2022-08-17T03:37:47.944Z,21.40
2022-08-17T03:41:51.027Z,21.40
2022-08-17T03:46:34.358Z,21.40
2022-08-17T03:50:33.479Z,21.40
2022-08-17T03:54:53.592Z,21.40
2022-08-17T03:58:55.199Z,21.30
2022-08-17T04:02:56.970Z,21.30
2022-08-17T04:06:58.338Z,21.20
2022-08-17T04:11:00.195Z,21.30
2022-08-17T04:15:01.457Z,21.30
2022-08-17T04:19:04.405Z,21.20
2022-08-17T04:23:09.252Z,21.30
2022-08-17T04:27:10.714Z,21.20
2022-08-17T04:31:13.684Z,21.20
2022-08-17T04:35:20.838Z,21.00
2022-08-17T04:39:24.067Z,20.90
2022-08-17T04:43:27.021Z,20.90
2022-08-17T04:47:28.343Z,21.10
2022-08-17T04:51:56.172Z,21.10
2022-08-17T04:55:45.611Z,21.30
2022-08-17T04:59:46.850Z,21.30
2022-08-17T05:03:48.097Z,21.10
2022-08-17T05:07:54.801Z,21.00
2022-08-17T05:12:01.638Z,21.00
2022-08-17T05:16:04.129Z,21.10
2022-08-17T05:20:06.054Z,21.20
2022-08-17T05:24:35.388Z,21.40
2022-08-17T05:28:10.999Z,21.40
2022-08-17T05:32:38.643Z,21.50
2022-08-17T05:36:43.543Z,21.80
2022-08-17T05:40:20.835Z,21.70
2022-08-17T05:44:22.078Z,21.70
2022-08-17T05:48:35.671Z,21.70
2022-08-17T05:52:42.854Z,21.70
2022-08-17T05:56:50.991Z,22.00
2022-08-17T06:01:05.116Z,22.20
2022-08-17T06:05:25.306Z,22.30
2022-08-17T06:09:47.577Z,22.20
2022-08-17T06:13:52.659Z,22.20
2022-08-17T06:17:57.701Z,22.30
2022-08-17T06:21:59.674Z,22.40
2022-08-17T06:26:25.915Z,22.70
2022-08-17T06:30:29.128Z,22.70
2022-08-17T06:34:33.287Z,22.60
2022-08-17T06:38:42.819Z,22.40
2022-08-17T06:43:05.769Z,22.50
2022-08-17T06:47:01.410Z,22.70
2022-08-17T06:51:16.304Z,22.90
2022-08-17T06:55:21.617Z,23.10
2022-08-17T06:59:26.678Z,23.20
2022-08-17T07:03:37.011Z,23.40
2022-08-17T07:08:00.357Z,23.60
2022-08-17T07:12:11.467Z,23.60
2022-08-17T07:16:35.810Z,23.90
2022-08-17T07:20:42.076Z,23.80
2022-08-17T07:24:52.716Z,24.20
2022-08-17T07:28:55.490Z,24.20
2022-08-17T07:33:00.588Z,24.00
2022-08-17T07:37:04.542Z,24.00
2022-08-17T07:41:10.039Z,23.80
2022-08-17T07:45:14.951Z,23.90
2022-08-17T07:49:33.180Z,23.80
2022-08-17T07:53:34.985Z,24.20
2022-08-17T07:57:36.418Z,24.60
2022-08-17T08:01:39.619Z,24.60
2022-08-17T08:05:55.324Z,24.90
2022-08-17T08:10:10.075Z,24.90
2022-08-17T08:14:30.133Z,25.20
2022-08-17T08:18:53.364Z,25.10
2022-08-17T08:23:18.615Z,24.90
2022-08-17T08:27:25.605Z,24.60
2022-08-17T08:31:45.675Z,24.90
2022-08-17T08:35:56.805Z,25.10
2022-08-17T08:40:25.674Z,25.00
2022-08-17T08:45:00.923Z,25.00
2022-08-17T08:49:18.962Z,24.90
2022-08-17T08:53:41.014Z,24.90
2022-08-17T08:57:48.635Z,24.90
2022-08-17T09:02:02.912Z,25.00
2022-08-17T09:06:32.217Z,25.20
2022-08-17T09:10:29.715Z,25.60
2022-08-17T09:14:44.977Z,26.00
2022-08-17T09:19:00.795Z,26.40
2022-08-17T09:22:59.378Z,26.50
2022-08-17T09:27:14.576Z,26.60
2022-08-17T09:31:34.842Z,26.70
2022-08-17T09:35:44.800Z,26.80
2022-08-17T09:39:49.850Z,26.60
2022-08-17T09:44:23.745Z,26.60
2022-08-17T09:48:43.734Z,26.60
2022-08-17T09:52:45.052Z,26.80
2022-08-17T09:57:18.117Z,26.90
2022-08-17T10:01:03.070Z,27.00
2022-08-17T10:05:21.039Z,27.10
2022-08-17T10:09:34.578Z,27.10
2022-08-17T10:14:01.222Z,27.50
2022-08-17T10:18:24.727Z,28.00
2022-08-17T10:22:54.789Z,28.40
2022-08-17T10:26:57.534Z,28.60
2022-08-17T10:31:31.015Z,28.80
2022-08-17T10:35:30.099Z,28.90
2022-08-17T10:39:52.657Z,29.30
2022-08-17T10:44:40.391Z,29.90
2022-08-17T10:48:12.374Z,29.80
2022-08-17T10:52:27.000Z,29.30
2022-08-17T10:56:44.179Z,29.40
2022-08-17T11:00:55.314Z,29.30
2022-08-17T11:05:19.917Z,29.20
2022-08-17T11:09:27.975Z,28.70
2022-08-17T11:14:06.185Z,28.60
2022-08-17T11:18:13.780Z,28.60
2022-08-17T11:22:29.913Z,28.30
2022-08-17T11:26:32.816Z,28.30
2022-08-17T11:30:48.704Z,28.10
2022-08-17T11:34:53.834Z,27.90
2022-08-17T11:39:20.218Z,27.70
2022-08-17T11:43:55.701Z,28.10
2022-08-17T11:48:28.606Z,28.10
2022-08-17T11:52:38.490Z,27.70
2022-08-17T11:56:46.474Z,27.80
2022-08-17T12:00:51.402Z,28.20
2022-08-17T12:05:17.302Z,28.80
2022-08-17T12:09:23.724Z,28.70
2022-08-17T12:13:27.342Z,29.00
2022-08-17T12:17:40.814Z,28.90
2022-08-17T12:21:44.644Z,29.40
2022-08-17T12:25:58.637Z,30.10
2022-08-17T12:30:03.824Z,30.40
2022-08-17T12:34:05.156Z,30.70
2022-08-17T12:38:32.023Z,30.80
2022-08-17T12:42:23.038Z,29.90
2022-08-17T12:46:24.283Z,28.90
2022-08-17T12:50:28.677Z,28.70
2022-08-17T12:54:36.274Z,28.50
2022-08-17T12:58:41.313Z,28.20
2022-08-17T13:03:07.232Z,28.50
2022-08-17T13:07:08.430Z,29.60
2022-08-17T13:11:17.896Z,29.70
2022-08-17T13:15:28.922Z,29.80
2022-08-17T13:19:40.897Z,29.60
2022-08-17T13:23:35.310Z,29.40
2022-08-17T13:27:40.321Z,29.70
2022-08-17T13:31:52.464Z,30.40
2022-08-17T13:35:50.510Z,29.80
2022-08-17T13:39:49.401Z,29.60
2022-08-17T13:43:50.753Z,29.30
2022-08-17T13:48:28.095Z,29.30
2022-08-17T13:52:38.283Z,29.20
2022-08-17T13:56:46.466Z,30.00
2022-08-17T14:00:47.779Z,30.00
2022-08-17T14:04:49.553Z,29.80
2022-08-17T14:08:54.271Z,29.70
2022-08-17T14:12:55.987Z,29.80
2022-08-17T14:16:57.725Z,30.50
2022-08-17T14:20:59.174Z,30.80
2022-08-17T14:25:00.961Z,31.00
2022-08-17T14:29:02.223Z,31.60
2022-08-17T14:33:04.986Z,31.20
2022-08-17T14:37:06.908Z,30.70
2022-08-17T14:41:08.191Z,31.20
2022-08-17T14:45:31.724Z,30.90
2022-08-17T14:49:15.433Z,30.30
2022-08-17T14:53:16.670Z,30.40
2022-08-17T14:57:25.911Z,30.50
2022-08-17T15:01:24.324Z,31.00
2022-08-17T15:05:32.808Z,30.80
2022-08-17T15:09:35.761Z,31.20
2022-08-17T15:13:38.033Z,30.90
2022-08-17T15:17:45.934Z,30.90
2022-08-17T15:21:47.457Z,31.00
2022-08-17T15:25:52.111Z,31.10
2022-08-17T15:29:53.415Z,31.20
2022-08-17T15:33:55.440Z,31.00
2022-08-17T15:38:09.784Z,31.30
2022-08-17T15:42:07.221Z,31.30
2022-08-17T15:46:11.655Z,31.20
2022-08-17T15:50:13.007Z,30.90
2022-08-17T15:54:19.369Z,31.20
2022-08-17T15:58:17.242Z,30.90
2022-08-17T16:03:15.019Z,30.70
2022-08-17T16:06:31.204Z,30.60
2022-08-17T16:10:34.874Z,30.80
2022-08-17T16:14:35.787Z,30.70
2022-08-17T16:18:38.119Z,30.80
2022-08-17T16:22:43.145Z,30.40
2022-08-17T16:26:44.471Z,30.40
2022-08-17T16:30:45.615Z,30.80
2022-08-17T16:34:47.419Z,30.90
2022-08-17T16:38:49.165Z,31.00
2022-08-17T16:42:50.752Z,30.70
2022-08-17T16:46:52.700Z,30.40
2022-08-17T16:51:02.985Z,30.10
2022-08-17T16:55:00.161Z,29.90
2022-08-17T16:59:09.159Z,29.80
2022-08-17T17:03:19.399Z,29.90
2022-08-17T17:07:33.012Z,30.00
2022-08-17T17:11:51.490Z,30.10
2022-08-17T17:15:56.623Z,30.00
2022-08-17T17:20:13.902Z,29.90
2022-08-17T17:24:19.087Z,29.70
2022-08-17T17:28:43.541Z,29.70
2022-08-17T17:33:00.181Z,29.50
2022-08-17T17:37:05.211Z,29.20
2022-08-17T17:41:10.262Z,29.40
2022-08-17T17:45:18.846Z,29.30
2022-08-17T17:49:20.525Z,29.10
2022-08-17T17:53:43.324Z,29.10
2022-08-17T17:58:03.987Z,29.10
2022-08-17T18:02:47.363Z,28.90
2022-08-17T18:06:57.020Z,28.70
2022-08-17T18:11:24.269Z,28.70
2022-08-17T18:15:38.613Z,28.70
2022-08-17T18:19:40.925Z,28.40
2022-08-17T18:23:52.087Z,28.00
2022-08-17T18:27:53.446Z,27.80
2022-08-17T18:32:13.872Z,27.70
2022-08-17T18:36:31.274Z,27.50
2022-08-17T18:40:35.975Z,27.40
2022-08-17T18:44:40.991Z,27.50
2022-08-17T18:48:55.903Z,27.60
2022-08-17T18:53:19.674Z,27.60
2022-08-17T18:57:24.762Z,27.70
2022-08-17T19:01:42.060Z,27.70
2022-08-17T19:05:37.142Z,27.60
2022-08-17T19:09:44.716Z,27.50
2022-08-17T19:13:55.351Z,27.30
2022-08-17T19:18:06.799Z,27.30
2022-08-17T19:22:27.771Z,27.40
2022-08-17T19:26:54.746Z,27.40
2022-08-17T19:30:29.744Z,27.20
2022-08-17T19:34:34.443Z,27.30
2022-08-17T19:38:48.225Z,27.40
2022-08-17T19:42:56.272Z,27.40
2022-08-17T19:47:01.488Z,27.40
2022-08-17T19:51:15.224Z,27.50
2022-08-17T19:55:37.728Z,27.40
2022-08-17T19:59:51.413Z,27.40
2022-08-17T20:03:59.111Z,27.40
2022-08-17T20:08:04.364Z,27.40
2022-08-17T20:12:12.620Z,27.30
2022-08-17T20:16:14.146Z,27.30
2022-08-17T20:20:36.295Z,27.10
2022-08-17T20:24:41.415Z,27.10
2022-08-17T20:29:04.803Z,26.90
2022-08-17T20:33:13.080Z,26.70
2022-08-17T20:37:16.543Z,26.70
2022-08-17T20:41:20.686Z,26.70
2022-08-17T20:45:27.415Z,26.60
2022-08-17T20:49:44.772Z,26.60
2022-08-17T20:53:52.910Z,26.60
2022-08-17T20:57:54.156Z,26.50
2022-08-17T21:02:18.436Z,26.00
2022-08-17T21:06:18.040Z,25.80
2022-08-17T21:10:23.104Z,25.90
2022-08-17T21:14:40.380Z,26.00
2022-08-17T21:19:01.715Z,26.00
2022-08-17T21:23:18.445Z,25.70
2022-08-17T21:27:51.219Z,25.70
2022-08-17T21:32:05.366Z,25.40
2022-08-17T21:36:15.364Z,25.10
2022-08-17T21:40:27.009Z,25.40
2022-08-17T21:44:34.450Z,25.50
2022-08-17T21:48:45.267Z,25.40
2022-08-17T21:52:52.708Z,25.20
2022-08-17T21:56:55.182Z,24.90
2022-08-17T22:01:20.410Z,24.80
2022-08-17T22:05:34.636Z,24.60
2022-08-17T22:09:49.498Z,24.50
2022-08-17T22:13:50.747Z,24.40
2022-08-17T22:17:54.994Z,24.30
2022-08-17T22:22:09.354Z,24.20
2022-08-17T22:26:13.204Z,24.40
2022-08-17T22:30:18.157Z,24.70
2022-08-17T22:34:19.383Z,24.60
2022-08-17T22:38:24.428Z,24.80
2022-08-17T22:42:25.646Z,24.90
2022-08-17T22:46:28.596Z,24.90
2022-08-17T22:50:32.390Z,24.70
2022-08-17T22:54:52.703Z,24.60
2022-08-17T22:59:15.171Z,24.50
2022-08-17T23:03:20.037Z,24.20
2022-08-17T23:07:21.367Z,24.00
2022-08-17T23:11:39.441Z,23.90
2022-08-17T23:15:33.107Z,23.80
2022-08-17T23:19:34.341Z,23.80
2022-08-17T23:23:36.352Z,23.70
2022-08-17T23:27:37.484Z,23.70
2022-08-17T23:31:39.399Z,23.70
2022-08-17T23:35:41.123Z,23.60
2022-08-17T23:39:44.381Z,23.60
2022-08-17T23:43:49.194Z,23.60
2022-08-17T23:47:50.603Z,23.50
2022-08-17T23:51:55.862Z,23.50
2022-08-17T23:56:09.622Z,23.40
